Wunstorf, Germany

5:32 AM CEST on September 17, 2014 (GMT +0200)
Wunstorf | Change Station
CLOSE
Current Station
Personal Weather Station
Location: Hagenburg, NIEDERSACHSEN
Elevation: 148 ft
Nearby Weather Stations

Elev 148 ft 52.43 °N, 9.33 °E | Updated 32 minutes ago

Clear
Clear
59.4 °F
Feels Like 59.4 °F
N
1.6
Wind Variable Wind from East
Gusts 3.0 mph

Today
High -- | Low -- °F
--% Chance of Precip.
Yesterday
High -- | Low -- °F
Precip. -- in
6:59 AM 7:33 PM
Last Quarter, 40% visible
Pressure 30.01 in
Visibility 3.7 miles
Clouds
Dew Point 58 °F
Humidity 96%
Rainfall 0.00 in
Snow Depth Not available.
UV 0.0 out of 12
Pollen Not available.
Air Quality Not available.
Flu Activity Not available.
METAR EDDV 170320Z 08003KT 6000 NSC 14/13 Q1016

More Conditions Fewer Conditions

Pressure 30.01 in
Visibility 3.7 miles
Clouds
Dew Point 58 °F
Humidity 96%
Rainfall 0.00 in
Snow Depth Not available.
UV 0.0 out of 12
Pollen Not available.
Air Quality Not available.
Flu Activity Not available.
METAR EDDV 170320Z 08003KT 6000 NSC 14/13 Q1016

More Conditions Fewer Conditions

10-Day Weather Forecast

Almanac

Astronomy

Sep. 17, 2014 Rise Set
Actual Time 6:59 AM CEST 7:33 PM CEST
Civil Twilight 6:25 AM CEST 8:07 PM CEST
Nautical Twilight 5:44 AM CEST 8:48 PM CEST
Astronomical Twilight 5:00 AM CEST 9:31 PM CEST
Moon 12:12 AM CEST 4:02 PM CEST
Length of Visible Light 13h 42m
Length of Day
12h 33m
Tomorrow will be 4m 2s shorter.
Last Quarter, 40% of the Moon is Illuminated
Sep 16
Last Quarter
Sep 24
New
Oct 1
First Quarter
Oct 8
Full
Oct 15
Last Quarter

Yesterday's Extremes

Country Highs Country Lows

Community

WunderPhotos

Upload Photos

1,753,954 photos uploaded!

Nearby

Snow Depth

Not available.

Earthquake Activity

City Distance Mag. Time & Date
No recent earthquake activity has been reported nearby.
Minimum magnitude displayed is 2.5.

Coastal Water Temperatures

Place Temperature
No Stations Reporting

Nearby Weather Stations